sensor_id;sensor_type;location;lat;lon;timestamp;P1;durP1;ratioP1;P2;durP2;ratioP2
53644;SDS011;39547;45.554;12.068;2022-10-26T00:04:08;18.02;;;9.23;;
53644;SDS011;39547;45.554;12.068;2022-10-26T00:10:09;16.38;;;8.50;;
53644;SDS011;39547;45.554;12.068;2022-10-26T00:16:12;18.00;;;8.48;;
53644;SDS011;39547;45.554;12.068;2022-10-26T00:28:16;16.70;;;8.45;;
53644;SDS011;39547;45.554;12.068;2022-10-26T00:34:17;18.25;;;9.30;;
53644;SDS011;39547;45.554;12.068;2022-10-26T00:40:20;17.10;;;8.65;;
53644;SDS011;39547;45.554;12.068;2022-10-26T00:52:28;17.50;;;8.63;;
53644;SDS011;39547;45.554;12.068;2022-10-26T00:58:30;18.10;;;8.68;;
53644;SDS011;39547;45.554;12.068;2022-10-26T01:04:32;17.00;;;8.50;;
53644;SDS011;39547;45.554;12.068;2022-10-26T01:10:35;17.65;;;8.55;;
53644;SDS011;39547;45.554;12.068;2022-10-26T01:16:52;17.35;;;8.73;;
53644;SDS011;39547;45.554;12.068;2022-10-26T01:29:13;17.75;;;8.60;;
53644;SDS011;39547;45.554;12.068;2022-10-26T01:41:31;17.42;;;8.90;;
53644;SDS011;39547;45.554;12.068;2022-10-26T01:47:44;17.37;;;9.20;;
53644;SDS011;39547;45.554;12.068;2022-10-26T01:53:48;15.70;;;7.83;;
53644;SDS011;39547;45.554;12.068;2022-10-26T02:06:26;17.55;;;9.25;;
53644;SDS011;39547;45.554;12.068;2022-10-26T02:12:37;17.13;;;9.05;;
53644;SDS011;39547;45.554;12.068;2022-10-26T02:18:47;17.65;;;8.90;;
53644;SDS011;39547;45.554;12.068;2022-10-26T02:24:54;21.00;;;10.02;;
53644;SDS011;39547;45.554;12.068;2022-10-26T02:30:56;19.05;;;9.45;;
53644;SDS011;39547;45.554;12.068;2022-10-26T02:37:00;17.90;;;9.68;;
53644;SDS011;39547;45.554;12.068;2022-10-26T02:43:07;16.83;;;8.15;;
53644;SDS011;39547;45.554;12.068;2022-10-26T02:49:13;17.83;;;8.98;;
53644;SDS011;39547;45.554;12.068;2022-10-26T02:55:21;17.98;;;8.82;;
53644;SDS011;39547;45.554;12.068;2022-10-26T03:01:27;18.52;;;8.88;;
53644;SDS011;39547;45.554;12.068;2022-10-26T03:07:30;16.02;;;8.68;;
53644;SDS011;39547;45.554;12.068;2022-10-26T03:13:31;15.63;;;7.82;;
53644;SDS011;39547;45.554;12.068;2022-10-26T03:19:33;16.48;;;8.60;;
53644;SDS011;39547;45.554;12.068;2022-10-26T03:25:34;16.65;;;8.00;;
53644;SDS011;39547;45.554;12.068;2022-10-26T03:31:36;18.08;;;9.02;;
53644;SDS011;39547;45.554;12.068;2022-10-26T03:37:37;16.77;;;8.90;;
53644;SDS011;39547;45.554;12.068;2022-10-26T03:43:38;17.00;;;8.43;;
53644;SDS011;39547;45.554;12.068;2022-10-26T03:49:40;16.73;;;8.43;;
53644;SDS011;39547;45.554;12.068;2022-10-26T03:55:44;17.65;;;8.98;;
53644;SDS011;39547;45.554;12.068;2022-10-26T04:01:46;18.23;;;8.98;;
53644;SDS011;39547;45.554;12.068;2022-10-26T04:07:57;17.38;;;9.32;;
53644;SDS011;39547;45.554;12.068;2022-10-26T04:14:00;17.92;;;9.50;;
53644;SDS011;39547;45.554;12.068;2022-10-26T04:20:02;18.20;;;9.30;;
53644;SDS011;39547;45.554;12.068;2022-10-26T04:26:04;20.35;;;9.13;;
53644;SDS011;39547;45.554;12.068;2022-10-26T04:32:06;17.45;;;9.88;;
53644;SDS011;39547;45.554;12.068;2022-10-26T04:38:08;18.58;;;9.90;;
53644;SDS011;39547;45.554;12.068;2022-10-26T04:44:10;18.98;;;10.80;;
53644;SDS011;39547;45.554;12.068;2022-10-26T04:50:12;23.13;;;13.52;;
53644;SDS011;39547;45.554;12.068;2022-10-26T04:56:13;23.52;;;13.80;;
53644;SDS011;39547;45.554;12.068;2022-10-26T05:02:15;21.83;;;12.40;;
53644;SDS011;39547;45.554;12.068;2022-10-26T05:08:16;25.17;;;13.60;;
53644;SDS011;39547;45.554;12.068;2022-10-26T05:14:18;22.48;;;13.50;;
53644;SDS011;39547;45.554;12.068;2022-10-26T05:20:19;21.63;;;11.50;;
53644;SDS011;39547;45.554;12.068;2022-10-26T05:26:21;17.85;;;9.68;;
53644;SDS011;39547;45.554;12.068;2022-10-26T05:32:23;17.17;;;8.98;;
53644;SDS011;39547;45.554;12.068;2022-10-26T05:38:24;18.67;;;9.60;;
53644;SDS011;39547;45.554;12.068;2022-10-26T05:44:26;17.85;;;9.05;;
53644;SDS011;39547;45.554;12.068;2022-10-26T05:50:27;17.67;;;8.13;;
53644;SDS011;39547;45.554;12.068;2022-10-26T05:56:39;22.67;;;8.85;;
53644;SDS011;39547;45.554;12.068;2022-10-26T06:09:00;21.65;;;9.68;;
53644;SDS011;39547;45.554;12.068;2022-10-26T06:15:03;21.02;;;8.95;;
53644;SDS011;39547;45.554;12.068;2022-10-26T06:33:27;22.27;;;10.32;;
53644;SDS011;39547;45.554;12.068;2022-10-26T06:39:30;21.33;;;11.15;;
53644;SDS011;39547;45.554;12.068;2022-10-26T06:45:36;23.05;;;13.75;;
53644;SDS011;39547;45.554;12.068;2022-10-26T06:51:51;20.88;;;12.48;;
53644;SDS011;39547;45.554;12.068;2022-10-26T06:57:58;20.75;;;11.85;;
53644;SDS011;39547;45.554;12.068;2022-10-26T07:04:01;19.05;;;10.00;;
53644;SDS011;39547;45.554;12.068;2022-10-26T07:10:03;14.30;;;6.43;;
53644;SDS011;39547;45.554;12.068;2022-10-26T07:16:06;16.98;;;8.02;;
53644;SDS011;39547;45.554;12.068;2022-10-26T07:22:08;15.63;;;6.68;;
53644;SDS011;39547;45.554;12.068;2022-10-26T07:28:10;16.35;;;7.90;;
53644;SDS011;39547;45.554;12.068;2022-10-26T07:34:12;15.85;;;7.50;;
53644;SDS011;39547;45.554;12.068;2022-10-26T07:40:13;15.00;;;6.70;;
53644;SDS011;39547;45.554;12.068;2022-10-26T07:46:15;16.40;;;7.35;;
53644;SDS011;39547;45.554;12.068;2022-10-26T07:52:17;16.08;;;7.30;;
53644;SDS011;39547;45.554;12.068;2022-10-26T07:58:19;16.83;;;7.30;;
53644;SDS011;39547;45.554;12.068;2022-10-26T08:04:23;15.32;;;6.50;;
53644;SDS011;39547;45.554;12.068;2022-10-26T08:10:24;17.38;;;7.18;;
53644;SDS011;39547;45.554;12.068;2022-10-26T08:16:26;14.93;;;6.43;;
53644;SDS011;39547;45.554;12.068;2022-10-26T08:22:28;15.75;;;7.15;;
53644;SDS011;39547;45.554;12.068;2022-10-26T08:28:30;16.25;;;7.90;;
53644;SDS011;39547;45.554;12.068;2022-10-26T08:34:33;16.38;;;5.72;;
53644;SDS011;39547;45.554;12.068;2022-10-26T08:40:39;17.13;;;6.78;;
53644;SDS011;39547;45.554;12.068;2022-10-26T08:46:43;15.23;;;6.88;;
53644;SDS011;39547;45.554;12.068;2022-10-26T08:53:00;17.65;;;7.15;;
53644;SDS011;39547;45.554;12.068;2022-10-26T08:59:22;17.42;;;7.75;;
53644;SDS011;39547;45.554;12.068;2022-10-26T09:05:54;16.33;;;7.35;;
53644;SDS011;39547;45.554;12.068;2022-10-26T09:24:51;14.70;;;6.63;;
53644;SDS011;39547;45.554;12.068;2022-10-26T09:30:55;14.93;;;6.68;;
53644;SDS011;39547;45.554;12.068;2022-10-26T09:36:59;14.90;;;6.28;;
53644;SDS011;39547;45.554;12.068;2022-10-26T09:43:19;14.93;;;5.72;;
53644;SDS011;39547;45.554;12.068;2022-10-26T09:49:41;14.60;;;6.75;;
53644;SDS011;39547;45.554;12.068;2022-10-26T09:56:09;18.15;;;8.43;;
53644;SDS011;39547;45.554;12.068;2022-10-26T10:08:33;16.92;;;7.80;;
53644;SDS011;39547;45.554;12.068;2022-10-26T10:14:38;18.63;;;8.50;;
53644;SDS011;39547;45.554;12.068;2022-10-26T10:20:40;15.73;;;6.75;;
53644;SDS011;39547;45.554;12.068;2022-10-26T10:26:58;15.35;;;6.97;;
53644;SDS011;39547;45.554;12.068;2022-10-26T10:33:13;14.82;;;6.03;;
53644;SDS011;39547;45.554;12.068;2022-10-26T10:45:40;18.88;;;8.70;;
53644;SDS011;39547;45.554;12.068;2022-10-26T10:51:51;17.98;;;8.05;;
53644;SDS011;39547;45.554;12.068;2022-10-26T11:10:50;17.30;;;7.75;;
53644;SDS011;39547;45.554;12.068;2022-10-26T11:23:24;17.67;;;7.40;;
53644;SDS011;39547;45.554;12.068;2022-10-26T11:36:02;16.10;;;6.70;;
53644;SDS011;39547;45.554;12.068;2022-10-26T11:42:12;16.65;;;6.78;;
53644;SDS011;39547;45.554;12.068;2022-10-26T11:49:09;16.73;;;7.00;;
53644;SDS011;39547;45.554;12.068;2022-10-26T11:54:54;16.52;;;6.47;;
53644;SDS011;39547;45.554;12.068;2022-10-26T12:01:01;15.90;;;6.75;;
53644;SDS011;39547;45.554;12.068;2022-10-26T12:07:09;15.18;;;6.32;;
53644;SDS011;39547;45.554;12.068;2022-10-26T12:13:19;14.57;;;5.68;;
53644;SDS011;39547;45.554;12.068;2022-10-26T12:50:48;19.75;;;8.80;;
53644;SDS011;39547;45.554;12.068;2022-10-26T12:56:53;19.92;;;8.73;;
53644;SDS011;39547;45.554;12.068;2022-10-26T13:09:52;20.55;;;8.55;;
53644;SDS011;39547;45.554;12.068;2022-10-26T13:16:04;17.48;;;7.43;;
53644;SDS011;39547;45.554;12.068;2022-10-26T13:22:15;21.27;;;9.05;;
53644;SDS011;39547;45.554;12.068;2022-10-26T13:34:59;19.13;;;9.10;;
53644;SDS011;39547;45.554;12.068;2022-10-26T13:41:04;21.38;;;8.98;;
53644;SDS011;39547;45.554;12.068;2022-10-26T13:47:15;18.63;;;8.02;;
53644;SDS011;39547;45.554;12.068;2022-10-26T13:53:38;21.88;;;9.95;;
53644;SDS011;39547;45.554;12.068;2022-10-26T13:59:47;18.08;;;8.13;;
53644;SDS011;39547;45.554;12.068;2022-10-26T14:05:49;22.67;;;9.75;;
53644;SDS011;39547;45.554;12.068;2022-10-26T14:11:52;21.38;;;9.35;;
53644;SDS011;39547;45.554;12.068;2022-10-26T14:17:55;22.25;;;10.38;;
53644;SDS011;39547;45.554;12.068;2022-10-26T14:23:59;18.20;;;8.55;;
53644;SDS011;39547;45.554;12.068;2022-10-26T14:36:22;21.13;;;9.60;;
53644;SDS011;39547;45.554;12.068;2022-10-26T14:42:31;20.95;;;9.02;;
53644;SDS011;39547;45.554;12.068;2022-10-26T14:48:41;19.25;;;9.10;;
53644;SDS011;39547;45.554;12.068;2022-10-26T15:07:22;19.88;;;8.52;;
53644;SDS011;39547;45.554;12.068;2022-10-26T15:19:33;19.63;;;9.18;;
53644;SDS011;39547;45.554;12.068;2022-10-26T15:25:36;20.37;;;8.50;;
53644;SDS011;39547;45.554;12.068;2022-10-26T15:31:38;19.58;;;8.70;;
53644;SDS011;39547;45.554;12.068;2022-10-26T15:37:39;21.58;;;8.20;;
53644;SDS011;39547;45.554;12.068;2022-10-26T15:43:41;20.85;;;8.50;;
53644;SDS011;39547;45.554;12.068;2022-10-26T15:49:43;20.13;;;8.80;;
53644;SDS011;39547;45.554;12.068;2022-10-26T15:55:45;19.10;;;8.93;;
53644;SDS011;39547;45.554;12.068;2022-10-26T16:01:48;19.90;;;9.00;;
53644;SDS011;39547;45.554;12.068;2022-10-26T16:07:52;22.02;;;9.82;;
53644;SDS011;39547;45.554;12.068;2022-10-26T16:13:53;20.08;;;8.55;;
53644;SDS011;39547;45.554;12.068;2022-10-26T16:19:55;22.88;;;10.30;;
53644;SDS011;39547;45.554;12.068;2022-10-26T16:25:56;20.05;;;10.13;;
53644;SDS011;39547;45.554;12.068;2022-10-26T16:31:58;22.00;;;10.43;;
53644;SDS011;39547;45.554;12.068;2022-10-26T16:37:59;21.60;;;9.55;;
53644;SDS011;39547;45.554;12.068;2022-10-26T16:44:00;23.92;;;10.60;;
53644;SDS011;39547;45.554;12.068;2022-10-26T16:50:02;23.52;;;10.48;;
53644;SDS011;39547;45.554;12.068;2022-10-26T16:56:05;22.88;;;10.05;;
53644;SDS011;39547;45.554;12.068;2022-10-26T17:08:12;23.92;;;10.30;;
53644;SDS011;39547;45.554;12.068;2022-10-26T17:14:14;21.52;;;9.75;;
53644;SDS011;39547;45.554;12.068;2022-10-26T17:20:15;23.35;;;11.38;;
53644;SDS011;39547;45.554;12.068;2022-10-26T17:26:17;22.10;;;10.45;;
53644;SDS011;39547;45.554;12.068;2022-10-26T17:32:19;24.58;;;10.48;;
53644;SDS011;39547;45.554;12.068;2022-10-26T17:38:22;23.90;;;10.73;;
53644;SDS011;39547;45.554;12.068;2022-10-26T17:44:23;22.42;;;10.82;;
53644;SDS011;39547;45.554;12.068;2022-10-26T17:50:24;22.80;;;11.00;;
53644;SDS011;39547;45.554;12.068;2022-10-26T17:56:27;23.80;;;11.45;;
53644;SDS011;39547;45.554;12.068;2022-10-26T18:02:29;25.67;;;12.30;;
53644;SDS011;39547;45.554;12.068;2022-10-26T18:08:31;24.95;;;12.23;;
53644;SDS011;39547;45.554;12.068;2022-10-26T18:14:36;25.45;;;12.57;;
53644;SDS011;39547;45.554;12.068;2022-10-26T18:20:38;30.40;;;14.68;;
53644;SDS011;39547;45.554;12.068;2022-10-26T18:26:40;30.65;;;16.13;;
53644;SDS011;39547;45.554;12.068;2022-10-26T18:32:41;31.20;;;16.55;;
53644;SDS011;39547;45.554;12.068;2022-10-26T18:38:43;39.25;;;17.60;;
53644;SDS011;39547;45.554;12.068;2022-10-26T18:44:46;31.38;;;16.05;;
53644;SDS011;39547;45.554;12.068;2022-10-26T18:50:47;34.00;;;15.88;;
53644;SDS011;39547;45.554;12.068;2022-10-26T18:56:49;30.88;;;15.98;;
53644;SDS011;39547;45.554;12.068;2022-10-26T19:02:50;33.55;;;18.02;;
53644;SDS011;39547;45.554;12.068;2022-10-26T19:08:52;28.65;;;15.85;;
53644;SDS011;39547;45.554;12.068;2022-10-26T19:14:54;33.63;;;17.13;;
53644;SDS011;39547;45.554;12.068;2022-10-26T19:20:56;28.38;;;15.65;;
53644;SDS011;39547;45.554;12.068;2022-10-26T19:26:59;33.08;;;16.60;;
53644;SDS011;39547;45.554;12.068;2022-10-26T19:33:00;31.17;;;16.30;;
53644;SDS011;39547;45.554;12.068;2022-10-26T19:39:02;31.92;;;17.40;;
53644;SDS011;39547;45.554;12.068;2022-10-26T19:45:04;34.03;;;17.67;;
53644;SDS011;39547;45.554;12.068;2022-10-26T19:51:06;32.33;;;17.80;;
53644;SDS011;39547;45.554;12.068;2022-10-26T19:57:07;34.88;;;18.33;;
53644;SDS011;39547;45.554;12.068;2022-10-26T20:03:09;35.38;;;19.05;;
53644;SDS011;39547;45.554;12.068;2022-10-26T20:09:12;34.72;;;17.60;;
53644;SDS011;39547;45.554;12.068;2022-10-26T20:15:13;40.00;;;20.75;;
53644;SDS011;39547;45.554;12.068;2022-10-26T20:21:16;38.92;;;21.08;;
53644;SDS011;39547;45.554;12.068;2022-10-26T20:27:17;38.20;;;20.08;;
53644;SDS011;39547;45.554;12.068;2022-10-26T20:33:19;35.85;;;19.10;;
53644;SDS011;39547;45.554;12.068;2022-10-26T20:39:20;36.13;;;19.00;;
53644;SDS011;39547;45.554;12.068;2022-10-26T20:51:38;39.67;;;22.55;;
53644;SDS011;39547;45.554;12.068;2022-10-26T20:57:50;36.78;;;19.88;;
53644;SDS011;39547;45.554;12.068;2022-10-26T21:03:56;36.22;;;19.75;;
53644;SDS011;39547;45.554;12.068;2022-10-26T21:09:59;43.67;;;22.33;;
53644;SDS011;39547;45.554;12.068;2022-10-26T21:16:03;37.85;;;20.15;;
53644;SDS011;39547;45.554;12.068;2022-10-26T21:22:06;40.58;;;21.67;;
53644;SDS011;39547;45.554;12.068;2022-10-26T21:28:08;40.10;;;22.50;;
53644;SDS011;39547;45.554;12.068;2022-10-26T21:34:09;41.33;;;22.95;;
53644;SDS011;39547;45.554;12.068;2022-10-26T21:40:11;41.47;;;23.08;;
53644;SDS011;39547;45.554;12.068;2022-10-26T21:46:13;39.45;;;22.40;;
53644;SDS011;39547;45.554;12.068;2022-10-26T21:52:15;42.95;;;22.98;;
53644;SDS011;39547;45.554;12.068;2022-10-26T21:58:17;43.42;;;24.25;;
53644;SDS011;39547;45.554;12.068;2022-10-26T22:04:19;41.72;;;22.80;;
53644;SDS011;39547;45.554;12.068;2022-10-26T22:10:20;40.13;;;22.75;;
53644;SDS011;39547;45.554;12.068;2022-10-26T22:16:23;42.72;;;24.92;;
53644;SDS011;39547;45.554;12.068;2022-10-26T22:28:29;42.65;;;25.08;;
53644;SDS011;39547;45.554;12.068;2022-10-26T22:34:30;39.45;;;23.70;;
53644;SDS011;39547;45.554;12.068;2022-10-26T22:40:31;45.08;;;25.30;;
53644;SDS011;39547;45.554;12.068;2022-10-26T22:46:33;45.00;;;25.42;;
53644;SDS011;39547;45.554;12.068;2022-10-26T22:52:34;41.45;;;24.75;;
53644;SDS011;39547;45.554;12.068;2022-10-26T22:58:36;40.38;;;23.80;;
53644;SDS011;39547;45.554;12.068;2022-10-26T23:04:38;39.42;;;22.85;;
53644;SDS011;39547;45.554;12.068;2022-10-26T23:10:39;40.30;;;22.98;;
53644;SDS011;39547;45.554;12.068;2022-10-26T23:16:41;41.28;;;22.50;;
53644;SDS011;39547;45.554;12.068;2022-10-26T23:22:42;36.50;;;21.20;;
53644;SDS011;39547;45.554;12.068;2022-10-26T23:28:44;36.78;;;22.38;;
53644;SDS011;39547;45.554;12.068;2022-10-26T23:34:45;43.85;;;24.98;;
53644;SDS011;39547;45.554;12.068;2022-10-26T23:40:48;44.42;;;25.30;;
53644;SDS011;39547;45.554;12.068;2022-10-26T23:46:50;37.28;;;21.83;;
53644;SDS011;39547;45.554;12.068;2022-10-26T23:52:51;43.88;;;24.02;;
53644;SDS011;39547;45.554;12.068;2022-10-26T23:58:53;38.95;;;20.77;;
